Terminal Aerodrome Forecast
Issued by NWS Oklahoma City, OK

Home | Current Version | Previous Version | Text Only | Print | Product List | Glossary On
Versions: 1 2 3 4 5 6 7 8 9 10 11 12 13 14 15 16 17 18 19 20 21 22 23 24 25 26 27 28 29 30 31 32
000
FTUS44 KOUN 201438 AAB
TAFOUN
TAF AMD
KOUN 201438Z 2015/2112 17007KT P6SM OVC025
      TEMPO 2015/2018 6SM BR OVC015
     FM202300 16008KT 5SM BR OVC008
     FM210400 16006KT 1SM BR OVC005=

USA.gov is the U.S. government's official web portal to all federal, state and local government web resources and services.